createdAt,value
2019-04-03T00:00:04.418Z,2.93
2019-04-03T00:02:32.713Z,2.50
2019-04-03T00:05:02.833Z,2.80
2019-04-03T00:07:33.750Z,2.70
2019-04-03T00:10:02.606Z,3.07
2019-04-03T00:12:31.023Z,2.50
2019-04-03T00:14:59.505Z,2.83
2019-04-03T00:17:27.980Z,2.70
2019-04-03T00:19:56.390Z,3.13
2019-04-03T00:22:24.802Z,2.73
2019-04-03T00:24:53.364Z,3.20
2019-04-03T00:27:22.334Z,2.67
2019-04-03T00:29:52.145Z,2.77
2019-04-03T00:32:21.738Z,2.30
2019-04-03T00:34:51.767Z,3.10
2019-04-03T00:37:22.827Z,2.57
2019-04-03T00:39:52.528Z,2.97
2019-04-03T00:42:24.162Z,2.50
2019-04-03T00:44:52.737Z,2.00
2019-04-03T00:47:21.562Z,2.33
2019-04-03T00:49:49.975Z,2.60
2019-04-03T00:52:18.387Z,2.60
2019-04-03T00:54:46.894Z,2.53
2019-04-03T00:57:15.304Z,2.47
2019-04-03T00:59:43.714Z,2.37
2019-04-03T01:02:12.142Z,2.57
2019-04-03T01:04:40.554Z,2.77
2019-04-03T01:07:08.969Z,2.40
2019-04-03T01:09:37.414Z,2.70
2019-04-03T01:12:05.819Z,2.70
2019-04-03T01:14:34.233Z,2.20
2019-04-03T01:17:04.367Z,2.70
2019-04-03T01:19:32.744Z,2.60
2019-04-03T01:22:01.153Z,2.50
2019-04-03T01:24:29.591Z,2.50
2019-04-03T01:26:58.006Z,2.90
2019-04-03T01:29:26.420Z,2.30
2019-04-03T01:31:54.878Z,2.97
2019-04-03T01:34:23.286Z,2.13
2019-04-03T01:36:51.691Z,2.40
2019-04-03T01:39:21.071Z,2.53
2019-04-03T01:41:51.439Z,2.50
2019-04-03T01:44:19.809Z,2.63
2019-04-03T01:46:48.245Z,3.10
2019-04-03T01:49:16.674Z,2.80
2019-04-03T01:51:45.069Z,2.70
2019-04-03T01:54:13.509Z,2.77
2019-04-03T01:56:41.922Z,3.00
2019-04-03T01:59:10.328Z,2.73
2019-04-03T02:01:39.129Z,2.63
2019-04-03T02:04:07.682Z,2.40
2019-04-03T02:06:36.082Z,2.50
2019-04-03T02:09:07.337Z,2.67
2019-04-03T02:11:35.745Z,2.67
2019-04-03T02:14:04.155Z,2.13
2019-04-03T02:16:32.614Z,2.57
2019-04-03T02:19:01.005Z,2.27
2019-04-03T02:21:29.453Z,2.87
2019-04-03T02:23:58.001Z,3.10
2019-04-03T02:26:27.034Z,2.63
2019-04-03T02:28:55.444Z,2.57
2019-04-03T02:31:23.882Z,2.43
2019-04-03T02:33:52.293Z,2.60
2019-04-03T02:36:20.708Z,2.40
2019-04-03T02:38:49.136Z,2.63
2019-04-03T02:41:17.704Z,2.90
2019-04-03T02:43:47.208Z,2.37
2019-04-03T02:46:16.225Z,2.53
2019-04-03T02:48:44.641Z,3.10
2019-04-03T02:51:13.053Z,2.57
2019-04-03T02:53:41.477Z,2.60
2019-04-03T02:56:12.988Z,2.83
2019-04-03T02:58:40.231Z,2.60
2019-04-03T03:01:08.715Z,2.60
2019-04-03T03:03:37.105Z,3.20
2019-04-03T03:06:05.509Z,2.97
2019-04-03T03:08:34.046Z,2.30
2019-04-03T03:11:03.365Z,2.50
2019-04-03T03:13:34.659Z,3.00
2019-04-03T03:16:02.730Z,2.93
2019-04-03T03:18:31.258Z,2.70
2019-04-03T03:20:59.759Z,2.50
2019-04-03T03:23:28.495Z,3.03
2019-04-03T03:25:56.915Z,2.43
2019-04-03T03:28:25.326Z,2.33
2019-04-03T03:30:59.615Z,2.67
2019-04-03T03:33:33.754Z,2.50
2019-04-03T03:35:54.108Z,2.73
2019-04-03T03:38:26.915Z,3.27
2019-04-03T03:40:52.822Z,2.50
2019-04-03T03:43:21.602Z,3.10
2019-04-03T03:45:52.568Z,3.13
2019-04-03T03:48:20.090Z,2.77
2019-04-03T03:50:48.517Z,2.40
2019-04-03T03:53:16.954Z,2.80
2019-04-03T03:55:45.571Z,2.80
2019-04-03T03:58:14.122Z,2.83
2019-04-03T04:00:42.892Z,2.67
2019-04-03T04:03:12.012Z,3.10
2019-04-03T04:05:40.959Z,3.30
2019-04-03T04:08:11.331Z,2.73
2019-04-03T04:10:40.085Z,2.70
2019-04-03T04:13:13.315Z,2.97
2019-04-03T04:15:39.367Z,2.70
2019-04-03T04:18:07.839Z,2.67
2019-04-03T04:20:38.134Z,2.70
2019-04-03T04:23:06.385Z,3.00
2019-04-03T04:25:35.003Z,3.30
2019-04-03T04:28:03.466Z,2.47
2019-04-03T04:30:31.865Z,2.83
2019-04-03T04:33:00.289Z,3.00
2019-04-03T04:35:28.706Z,3.00
2019-04-03T04:37:57.158Z,3.00
2019-04-03T04:40:25.545Z,2.97
2019-04-03T04:42:53.946Z,2.57
2019-04-03T04:45:22.385Z,3.17
2019-04-03T04:47:50.798Z,2.80
2019-04-03T04:50:24.239Z,3.10
2019-04-03T04:52:52.480Z,2.80
2019-04-03T04:55:20.939Z,2.67
2019-04-03T04:57:49.347Z,2.67
2019-04-03T05:00:17.796Z,3.23
2019-04-03T05:02:46.208Z,2.73
2019-04-03T05:05:14.630Z,2.20
2019-04-03T05:07:43.053Z,3.10
2019-04-03T05:10:11.459Z,2.60
2019-04-03T05:12:42.658Z,2.67
2019-04-03T05:15:09.963Z,2.63
2019-04-03T05:17:38.393Z,2.67
2019-04-03T05:20:06.800Z,2.80
2019-04-03T05:22:35.574Z,2.90
2019-04-03T05:25:04.342Z,2.73
2019-04-03T05:27:34.413Z,2.70
2019-04-03T05:30:05.283Z,2.67
2019-04-03T05:32:33.110Z,2.57
2019-04-03T05:35:01.549Z,2.63
2019-04-03T05:37:29.963Z,2.90
2019-04-03T05:39:58.474Z,3.10
2019-04-03T05:42:28.697Z,2.63
2019-04-03T05:44:56.979Z,2.87
2019-04-03T05:47:25.390Z,3.07
2019-04-03T05:49:55.783Z,2.73
2019-04-03T05:52:23.920Z,2.60
2019-04-03T05:54:52.341Z,3.00
2019-04-03T05:57:22.903Z,3.50
2019-04-03T05:59:59.796Z,2.57
2019-04-03T06:02:23.328Z,2.50
2019-04-03T06:04:51.821Z,3.07
2019-04-03T06:07:20.232Z,2.80
2019-04-03T06:09:49.311Z,2.80
2019-04-03T06:12:19.124Z,3.00
2019-04-03T06:14:49.732Z,2.90
2019-04-03T06:17:17.830Z,3.20
2019-04-03T06:19:46.249Z,2.87
2019-04-03T06:22:16.476Z,2.60
2019-04-03T06:24:44.733Z,3.00
2019-04-03T06:27:13.169Z,2.60
2019-04-03T06:29:41.881Z,2.60
2019-04-03T06:32:10.300Z,3.03
2019-04-03T06:34:42.106Z,2.83
2019-04-03T06:37:09.125Z,3.03
2019-04-03T06:39:37.767Z,3.00
2019-04-03T06:42:06.128Z,2.90
2019-04-03T06:44:34.570Z,3.40
2019-04-03T06:47:03.041Z,3.07
2019-04-03T06:49:31.402Z,3.07
2019-04-03T06:51:59.834Z,3.20
2019-04-03T06:54:31.060Z,3.43
2019-04-03T06:56:58.853Z,2.80
2019-04-03T06:59:27.290Z,3.00
2019-04-03T07:01:56.036Z,3.50
2019-04-03T07:04:24.713Z,3.10
2019-04-03T07:06:55.771Z,3.33
2019-04-03T07:09:33.765Z,3.47
2019-04-03T07:11:57.397Z,3.00
2019-04-03T07:14:26.772Z,2.90
2019-04-03T07:16:55.628Z,3.40
2019-04-03T07:19:24.207Z,3.50
2019-04-03T07:21:55.423Z,3.00
2019-04-03T07:24:23.010Z,3.33
2019-04-03T07:26:51.426Z,3.40
2019-04-03T07:29:19.870Z,3.30
2019-04-03T07:31:48.280Z,3.10
2019-04-03T07:34:16.692Z,3.80
2019-04-03T07:36:45.529Z,2.90
2019-04-03T07:39:14.832Z,2.83
2019-04-03T07:41:43.240Z,2.77
2019-04-03T07:44:11.672Z,3.67
2019-04-03T07:46:40.074Z,3.27
2019-04-03T07:49:08.983Z,3.60
2019-04-03T07:51:38.480Z,3.37
2019-04-03T07:54:07.326Z,2.77
2019-04-03T07:56:35.889Z,3.90
2019-04-03T07:59:04.349Z,3.80
2019-04-03T08:01:32.714Z,3.17
2019-04-03T08:04:01.120Z,2.80
2019-04-03T08:06:29.595Z,3.10
2019-04-03T08:09:07.533Z,3.90
2019-04-03T08:11:28.087Z,4.70
2019-04-03T08:13:56.484Z,4.10
2019-04-03T08:16:24.896Z,4.43
2019-04-03T08:18:53.297Z,4.17
2019-04-03T08:21:21.897Z,4.03
2019-04-03T08:23:50.348Z,3.97
2019-04-03T08:26:19.806Z,4.57
2019-04-03T08:28:48.392Z,4.77
2019-04-03T08:31:16.803Z,4.40
2019-04-03T08:33:45.210Z,4.27
2019-04-03T08:36:23.314Z,4.67
2019-04-03T08:38:44.956Z,4.63
2019-04-03T08:41:13.815Z,4.97
2019-04-03T08:43:42.252Z,4.20
2019-04-03T08:46:11.049Z,4.60
2019-04-03T08:48:39.490Z,4.60
2019-04-03T08:51:08.262Z,4.40
2019-04-03T08:53:39.334Z,4.37
2019-04-03T08:56:06.872Z,4.30
2019-04-03T08:58:35.306Z,4.33
2019-04-03T09:01:04.932Z,4.20
2019-04-03T09:03:33.746Z,4.27
2019-04-03T09:06:02.195Z,3.87
2019-04-03T09:08:30.680Z,4.47
2019-04-03T09:10:59.082Z,4.10
2019-04-03T09:13:27.579Z,5.20
2019-04-03T09:15:58.630Z,4.40
2019-04-03T09:18:27.570Z,4.30
2019-04-03T09:20:56.760Z,4.93
2019-04-03T09:23:25.516Z,4.30
2019-04-03T09:25:54.064Z,4.53
2019-04-03T09:28:22.805Z,4.33
2019-04-03T09:30:53.897Z,4.20
2019-04-03T09:33:21.430Z,4.00
2019-04-03T09:35:51.480Z,4.47
2019-04-03T09:38:20.604Z,4.87
2019-04-03T09:40:49.037Z,4.13
2019-04-03T09:43:17.471Z,4.60
2019-04-03T09:45:45.922Z,4.33
2019-04-03T09:48:14.284Z,4.43
2019-04-03T09:50:45.633Z,4.77
2019-04-03T09:53:12.783Z,4.23
2019-04-03T09:55:41.194Z,4.60
2019-04-03T09:58:09.643Z,4.23
2019-04-03T10:00:38.065Z,4.77
2019-04-03T10:03:06.484Z,4.00
2019-04-03T10:05:35.028Z,3.83
2019-04-03T10:08:03.650Z,4.27
2019-04-03T10:10:32.070Z,4.93
2019-04-03T10:13:00.514Z,4.73
2019-04-03T10:15:30.892Z,4.43
2019-04-03T10:17:58.962Z,4.10
2019-04-03T10:20:27.524Z,4.73
2019-04-03T10:22:56.966Z,4.10
2019-04-03T10:25:25.492Z,4.63
2019-04-03T10:27:54.252Z,4.83
2019-04-03T10:30:24.010Z,5.20
2019-04-03T10:32:52.527Z,4.67
2019-04-03T10:35:20.954Z,4.87
2019-04-03T10:37:49.376Z,4.60
2019-04-03T10:40:17.830Z,4.40
2019-04-03T10:42:46.234Z,4.93
2019-04-03T10:45:14.864Z,4.50
2019-04-03T10:47:44.327Z,4.23
2019-04-03T10:50:14.021Z,4.27
2019-04-03T10:52:44.275Z,4.40
2019-04-03T10:55:12.565Z,5.00
2019-04-03T10:57:40.996Z,4.30
2019-04-03T11:00:10.322Z,4.13
2019-04-03T11:02:38.743Z,4.30
2019-04-03T11:05:08.306Z,5.27
2019-04-03T11:07:36.829Z,4.27
2019-04-03T11:10:07.564Z,4.33
2019-04-03T11:12:36.022Z,4.40
2019-04-03T11:15:11.668Z,4.90
2019-04-03T11:17:39.459Z,4.37
2019-04-03T11:20:10.788Z,4.50
2019-04-03T11:25:09.645Z,4.90
2019-04-03T11:27:44.399Z,4.50
2019-04-03T11:30:12.404Z,3.77
2019-04-03T11:30:53.706Z,4.27
2019-04-03T11:32:42.690Z,3.67
2019-04-03T11:35:11.136Z,3.80
2019-04-03T11:37:39.598Z,4.30
2019-04-03T11:40:08.523Z,4.43
2019-04-03T11:42:36.967Z,4.43
2019-04-03T11:45:06.959Z,4.20
2019-04-03T11:47:35.352Z,5.60
2019-04-03T11:50:04.679Z,7.03
2019-04-03T11:52:33.138Z,5.20
2019-04-03T11:55:01.503Z,7.33
2019-04-03T11:57:29.952Z,10.13
2019-04-03T11:59:58.878Z,6.13
2019-04-03T12:02:27.391Z,5.30
2019-04-03T12:04:55.807Z,6.03
2019-04-03T12:07:25.139Z,5.27
2019-04-03T12:09:54.024Z,4.67
2019-04-03T12:12:22.649Z,5.70
2019-04-03T12:14:52.206Z,4.90
2019-04-03T12:17:20.627Z,5.43
2019-04-03T12:19:49.064Z,5.13
2019-04-03T12:22:17.782Z,4.87
2019-04-03T12:24:46.644Z,4.67
2019-04-03T12:27:15.345Z,5.37
2019-04-03T12:29:43.793Z,5.47
2019-04-03T12:32:12.208Z,4.07
2019-04-03T12:34:40.637Z,5.10
2019-04-03T12:37:09.322Z,5.60
2019-04-03T12:39:37.855Z,5.00
2019-04-03T12:42:08.299Z,4.47
2019-04-03T12:44:36.647Z,5.27
2019-04-03T12:47:07.071Z,5.10
2019-04-03T12:49:35.167Z,4.47
2019-04-03T12:52:04.750Z,4.37
2019-04-03T12:54:33.692Z,5.00
2019-04-03T12:57:02.208Z,4.80
2019-04-03T12:59:30.663Z,5.00
2019-04-03T13:01:59.341Z,4.83
2019-04-03T13:04:30.193Z,5.40
2019-04-03T13:06:57.910Z,5.83
2019-04-03T13:09:26.521Z,5.33
2019-04-03T13:11:55.115Z,4.53
2019-04-03T13:14:26.414Z,5.30
2019-04-03T13:16:53.632Z,5.33
2019-04-03T13:19:25.188Z,5.40
2019-04-03T13:21:54.021Z,5.30
2019-04-03T13:24:22.447Z,5.23
2019-04-03T13:26:50.887Z,6.10
2019-04-03T13:29:20.913Z,5.57
2019-04-03T13:31:49.517Z,6.17
2019-04-03T13:34:17.998Z,6.37
2019-04-03T13:36:46.718Z,6.50
2019-04-03T13:39:15.496Z,5.77
2019-04-03T13:41:44.020Z,6.43
2019-04-03T13:44:12.423Z,5.40
2019-04-03T13:46:40.931Z,5.27
2019-04-03T13:49:09.495Z,5.03
2019-04-03T13:51:37.917Z,6.10
2019-04-03T13:54:07.484Z,5.30
2019-04-03T13:56:36.976Z,5.00
2019-04-03T13:59:05.887Z,5.53
2019-04-03T14:01:34.703Z,4.80
2019-04-03T14:04:03.139Z,5.00
2019-04-03T14:06:31.547Z,5.00
2019-04-03T14:08:59.958Z,5.80
2019-04-03T14:11:30.429Z,5.60
2019-04-03T14:13:58.955Z,4.80
2019-04-03T14:16:27.384Z,5.10
2019-04-03T14:18:56.619Z,4.73
2019-04-03T14:21:27.523Z,5.23
2019-04-03T14:23:55.459Z,4.90
2019-04-03T14:26:24.020Z,4.60
2019-04-03T14:28:52.437Z,5.03
2019-04-03T14:31:33.088Z,5.37
2019-04-03T14:33:50.943Z,5.23
2019-04-03T14:36:19.655Z,4.50
2019-04-03T14:38:48.435Z,4.20
2019-04-03T14:41:18.616Z,4.47
2019-04-03T14:43:47.221Z,4.13
2019-04-03T14:46:17.963Z,4.43
2019-04-03T14:48:45.885Z,3.63
2019-04-03T14:51:14.334Z,4.20
2019-04-03T14:53:42.768Z,4.53
2019-04-03T14:56:11.569Z,4.30
2019-04-03T14:58:40.303Z,4.00
2019-04-03T15:01:08.739Z,4.00
2019-04-03T15:03:37.219Z,3.67
2019-04-03T15:06:05.864Z,3.53
2019-04-03T15:08:34.623Z,3.93
2019-04-03T15:11:03.808Z,4.10
2019-04-03T15:13:32.382Z,3.40
2019-04-03T15:16:01.207Z,2.90
2019-04-03T15:18:30.216Z,3.47
2019-04-03T15:20:58.731Z,3.40
2019-04-03T15:23:27.143Z,3.37
2019-04-03T15:25:55.831Z,3.30
2019-04-03T15:28:24.278Z,3.13
2019-04-03T15:30:52.760Z,3.20
2019-04-03T15:33:23.262Z,3.10
2019-04-03T15:35:51.304Z,3.10
2019-04-03T15:38:19.880Z,3.20
2019-04-03T15:40:48.846Z,3.13
2019-04-03T15:43:17.388Z,2.77
2019-04-03T15:45:45.833Z,3.13
2019-04-03T15:48:14.273Z,3.00
2019-04-03T15:50:44.367Z,2.63
2019-04-03T15:53:12.779Z,2.90
2019-04-03T15:55:41.614Z,3.03
2019-04-03T15:58:10.397Z,2.77
2019-04-03T16:00:39.418Z,2.30
2019-04-03T16:03:09.370Z,2.80
2019-04-03T16:05:37.822Z,2.40
2019-04-03T16:08:06.218Z,2.10
2019-04-03T16:10:35.148Z,2.73
2019-04-03T16:13:03.554Z,2.20
2019-04-03T16:15:31.966Z,1.93
2019-04-03T16:18:00.395Z,2.50
2019-04-03T16:20:28.921Z,2.30
2019-04-03T16:22:57.426Z,2.10
2019-04-03T16:25:25.859Z,2.10
2019-04-03T16:27:54.615Z,2.20
2019-04-03T16:30:24.224Z,2.13
2019-04-03T16:32:52.964Z,1.90
2019-04-03T16:35:21.733Z,1.80
2019-04-03T16:37:51.318Z,2.30
2019-04-03T16:40:20.324Z,2.10
2019-04-03T16:42:52.064Z,1.53
2019-04-03T16:45:18.800Z,2.20
2019-04-03T16:47:47.238Z,2.10
2019-04-03T16:50:16.112Z,2.20
2019-04-03T16:52:47.219Z,2.00
2019-04-03T16:55:15.894Z,1.80
2019-04-03T16:57:45.114Z,1.93
2019-04-03T17:00:14.602Z,2.20
2019-04-03T17:02:43.732Z,2.23
2019-04-03T17:05:12.596Z,2.10
2019-04-03T17:07:41.778Z,2.00
2019-04-03T17:10:10.704Z,2.27
2019-04-03T17:12:39.270Z,2.27
2019-04-03T17:15:08.727Z,2.00
2019-04-03T17:17:37.565Z,2.10
2019-04-03T17:20:09.405Z,2.03
2019-04-03T17:22:40.936Z,2.30
2019-04-03T17:25:09.231Z,2.17
2019-04-03T17:27:39.318Z,2.33
2019-04-03T17:30:08.502Z,1.87
2019-04-03T17:32:36.918Z,1.77
2019-04-03T17:35:08.728Z,1.87
2019-04-03T17:37:37.302Z,1.90
2019-04-03T17:40:08.648Z,2.30
2019-04-03T17:42:39.130Z,2.00
2019-04-03T17:45:07.182Z,2.13
2019-04-03T17:47:35.635Z,1.90
2019-04-03T17:50:06.382Z,2.10
2019-04-03T17:52:36.498Z,2.40
2019-04-03T17:55:10.009Z,1.80
2019-04-03T17:57:39.163Z,2.00
2019-04-03T18:00:12.931Z,2.13
2019-04-03T18:02:41.388Z,2.13
2019-04-03T18:05:09.867Z,2.20
2019-04-03T18:07:38.278Z,2.13
2019-04-03T18:10:09.167Z,2.57
2019-04-03T18:12:37.320Z,2.30
2019-04-03T18:15:07.654Z,1.93
2019-04-03T18:17:36.094Z,2.53
2019-04-03T18:20:06.138Z,2.10
2019-04-03T18:22:34.562Z,2.47
2019-04-03T18:25:02.998Z,2.00
2019-04-03T18:27:33.299Z,2.13
2019-04-03T18:30:02.038Z,2.33
2019-04-03T18:32:30.478Z,2.67
2019-04-03T18:34:58.891Z,2.10
2019-04-03T18:37:27.293Z,2.03
2019-04-03T18:39:55.751Z,2.40
2019-04-03T18:42:24.147Z,2.10
2019-04-03T18:44:52.576Z,2.20
2019-04-03T18:47:21.012Z,2.00
2019-04-03T18:49:49.426Z,2.03
2019-04-03T18:52:17.834Z,2.30
2019-04-03T18:54:46.270Z,1.80
2019-04-03T18:57:14.978Z,1.90
2019-04-03T18:59:44.748Z,1.87
2019-04-03T19:02:13.196Z,2.00
2019-04-03T19:04:41.681Z,2.10
2019-04-03T19:07:10.443Z,2.20
2019-04-03T19:09:38.894Z,2.20
2019-04-03T19:12:08.573Z,2.40
2019-04-03T19:14:37.438Z,1.83
2019-04-03T19:17:05.888Z,2.10
2019-04-03T19:19:34.298Z,1.80
2019-04-03T19:22:02.706Z,2.17
2019-04-03T19:24:31.149Z,1.90
2019-04-03T19:27:02.161Z,2.23
2019-04-03T19:29:29.615Z,2.30
2019-04-03T19:31:58.088Z,2.30
2019-04-03T19:34:26.605Z,1.80
2019-04-03T19:36:54.991Z,2.40
2019-04-03T19:39:23.438Z,1.90
2019-04-03T19:41:51.850Z,1.70
2019-04-03T19:44:20.258Z,2.30
2019-04-03T19:46:48.694Z,2.50
2019-04-03T19:49:17.113Z,1.60
2019-04-03T19:51:45.531Z,1.90
2019-04-03T19:54:14.886Z,1.63
2019-04-03T19:56:44.018Z,1.87
2019-04-03T19:59:12.432Z,2.20
2019-04-03T20:01:40.881Z,2.37
2019-04-03T20:04:09.295Z,1.63
2019-04-03T20:06:37.701Z,1.90
2019-04-03T20:09:08.734Z,1.90
2019-04-03T20:11:37.242Z,1.90
2019-04-03T20:14:05.828Z,1.83
2019-04-03T20:16:34.266Z,2.33
2019-04-03T20:19:02.686Z,1.77
2019-04-03T20:21:31.082Z,2.13
2019-04-03T20:23:59.519Z,1.87
2019-04-03T20:26:27.928Z,2.00
2019-04-03T20:28:57.413Z,1.70
2019-04-03T20:31:25.983Z,2.13
2019-04-03T20:33:54.397Z,1.87
2019-04-03T20:36:22.799Z,2.40
2019-04-03T20:38:51.234Z,2.00
2019-04-03T20:41:19.639Z,2.30
2019-04-03T20:43:48.056Z,1.90
2019-04-03T20:46:16.494Z,2.00
2019-04-03T20:48:44.920Z,1.90
2019-04-03T20:51:13.317Z,2.20
2019-04-03T20:53:41.767Z,2.17
2019-04-03T20:56:10.175Z,1.57
2019-04-03T20:58:40.713Z,1.33
2019-04-03T21:01:08.676Z,2.07
2019-04-03T21:03:37.080Z,1.83
2019-04-03T21:06:05.505Z,1.70
2019-04-03T21:08:33.957Z,2.07
2019-04-03T21:11:02.825Z,1.93
2019-04-03T21:13:31.726Z,2.10
2019-04-03T21:16:00.166Z,1.57
2019-04-03T21:18:28.582Z,1.87
2019-04-03T21:20:56.983Z,1.80
2019-04-03T21:23:25.422Z,1.97
2019-04-03T21:25:53.831Z,1.70
2019-04-03T21:28:22.247Z,1.80
2019-04-03T21:30:50.689Z,2.20
2019-04-03T21:33:19.098Z,1.80
2019-04-03T21:35:47.512Z,1.90
2019-04-03T21:38:15.964Z,1.80
2019-04-03T21:40:45.023Z,1.47
2019-04-03T21:43:14.430Z,1.83
2019-04-03T21:45:42.863Z,1.63
2019-04-03T21:48:11.915Z,2.10
2019-04-03T21:50:41.332Z,1.70
2019-04-03T21:53:09.786Z,1.83
2019-04-03T21:55:38.197Z,1.60
2019-04-03T21:58:06.896Z,1.83
2019-04-03T22:00:58.806Z,1.53
2019-04-03T22:03:27.292Z,1.67
2019-04-03T22:05:56.520Z,1.60
2019-04-03T22:08:25.145Z,1.63
2019-04-03T22:10:53.565Z,1.67
2019-04-03T22:13:21.977Z,2.03
2019-04-03T22:15:50.732Z,1.47
2019-04-03T22:18:19.149Z,2.13
2019-04-03T22:20:47.558Z,1.97
2019-04-03T22:23:16.005Z,1.67
2019-04-03T22:25:44.425Z,1.90
2019-04-03T22:28:13.468Z,1.80
2019-04-03T22:30:42.477Z,1.67
2019-04-03T22:33:10.883Z,1.80
2019-04-03T22:35:39.298Z,1.30
2019-04-03T22:38:07.736Z,1.73
2019-04-03T22:40:36.149Z,1.23
2019-04-03T22:43:04.565Z,1.87
2019-04-03T22:45:33.005Z,1.40
2019-04-03T22:48:01.415Z,1.90
2019-04-03T22:50:29.833Z,1.60
2019-04-03T22:52:58.279Z,1.60
2019-04-03T22:55:26.709Z,1.63
2019-04-03T22:57:55.111Z,1.67
2019-04-03T23:00:23.886Z,1.63
2019-04-03T23:02:53.619Z,1.90
2019-04-03T23:05:22.031Z,1.37
2019-04-03T23:07:51.968Z,1.60
2019-04-03T23:10:20.537Z,2.10
2019-04-03T23:12:48.956Z,1.57
2019-04-03T23:15:17.383Z,1.80
2019-04-03T23:17:45.863Z,1.30
2019-04-03T23:20:14.282Z,1.57
2019-04-03T23:22:42.740Z,1.33
2019-04-03T23:25:11.157Z,1.37
2019-04-03T23:27:39.566Z,1.80
2019-04-03T23:30:09.919Z,1.70
2019-04-03T23:32:38.068Z,1.90
2019-04-03T23:35:06.641Z,1.47
2019-04-03T23:37:35.079Z,1.80
2019-04-03T23:40:03.663Z,1.63
2019-04-03T23:42:32.093Z,1.53
2019-04-03T23:45:00.531Z,1.33
2019-04-03T23:47:28.940Z,1.50
2019-04-03T23:49:57.353Z,1.80
2019-04-03T23:52:25.796Z,1.27
2019-04-03T23:54:54.208Z,1.80
2019-04-03T23:57:22.623Z,1.40
2019-04-03T23:59:51.063Z,1.63
